sensor_id;sensor_type;location;lat;lon;timestamp;temperature;humidity
52787;DHT22;38661;53.152;5.846;2023-05-14T00:00:11;12.00;86.60
52787;DHT22;38661;53.152;5.846;2023-05-14T00:02:37;11.90;86.70
52787;DHT22;38661;53.152;5.846;2023-05-14T00:05:03;11.90;86.80
52787;DHT22;38661;53.152;5.846;2023-05-14T00:07:29;12.00;86.90
52787;DHT22;38661;53.152;5.846;2023-05-14T00:09:56;12.00;86.90
52787;DHT22;38661;53.152;5.846;2023-05-14T00:12:22;12.00;87.00
52787;DHT22;38661;53.152;5.846;2023-05-14T00:14:48;12.00;87.00
52787;DHT22;38661;53.152;5.846;2023-05-14T00:17:14;12.00;87.10
52787;DHT22;38661;53.152;5.846;2023-05-14T00:19:39;11.90;87.10
52787;DHT22;38661;53.152;5.846;2023-05-14T00:22:09;11.90;87.30
52787;DHT22;38661;53.152;5.846;2023-05-14T00:24:35;11.80;87.40
52787;DHT22;38661;53.152;5.846;2023-05-14T00:27:01;11.90;87.30
52787;DHT22;38661;53.152;5.846;2023-05-14T00:29:27;11.90;87.40
52787;DHT22;38661;53.152;5.846;2023-05-14T00:31:52;11.90;87.50
52787;DHT22;38661;53.152;5.846;2023-05-14T00:34:18;11.80;87.50
52787;DHT22;38661;53.152;5.846;2023-05-14T00:36:44;11.90;87.50
52787;DHT22;38661;53.152;5.846;2023-05-14T00:39:10;11.90;87.60
52787;DHT22;38661;53.152;5.846;2023-05-14T00:41:35;11.90;87.70
52787;DHT22;38661;53.152;5.846;2023-05-14T00:44:01;11.90;87.80
52787;DHT22;38661;53.152;5.846;2023-05-14T00:46:27;11.90;87.70
52787;DHT22;38661;53.152;5.846;2023-05-14T00:48:53;11.90;87.60
52787;DHT22;38661;53.152;5.846;2023-05-14T00:51:19;11.90;87.70
52787;DHT22;38661;53.152;5.846;2023-05-14T00:53:45;11.90;87.60
52787;DHT22;38661;53.152;5.846;2023-05-14T00:56:11;11.80;87.70
52787;DHT22;38661;53.152;5.846;2023-05-14T00:58:38;11.80;87.70
52787;DHT22;38661;53.152;5.846;2023-05-14T01:01:04;11.80;87.80
52787;DHT22;38661;53.152;5.846;2023-05-14T01:03:30;11.80;87.80
52787;DHT22;38661;53.152;5.846;2023-05-14T01:09:09;11.80;88.00
52787;DHT22;38661;53.152;5.846;2023-05-14T01:12:10;11.80;87.90
52787;DHT22;38661;53.152;5.846;2023-05-14T01:14:51;11.80;87.90
52787;DHT22;38661;53.152;5.846;2023-05-14T01:17:19;11.80;87.80
52787;DHT22;38661;53.152;5.846;2023-05-14T01:19:47;11.80;87.80
52787;DHT22;38661;53.152;5.846;2023-05-14T01:22:14;11.80;87.90
52787;DHT22;38661;53.152;5.846;2023-05-14T01:24:40;11.80;87.80
52787;DHT22;38661;53.152;5.846;2023-05-14T01:27:23;11.80;87.70
52787;DHT22;38661;53.152;5.846;2023-05-14T01:32:47;11.70;87.90
52787;DHT22;38661;53.152;5.846;2023-05-14T01:35:16;11.60;87.90
52787;DHT22;38661;53.152;5.846;2023-05-14T01:37:42;11.70;88.00
52787;DHT22;38661;53.152;5.846;2023-05-14T01:40:09;11.60;88.10
52787;DHT22;38661;53.152;5.846;2023-05-14T01:42:36;11.70;88.10
52787;DHT22;38661;53.152;5.846;2023-05-14T01:45:02;11.60;88.10
52787;DHT22;38661;53.152;5.846;2023-05-14T01:47:28;11.60;88.30
52787;DHT22;38661;53.152;5.846;2023-05-14T01:49:53;11.70;88.40
52787;DHT22;38661;53.152;5.846;2023-05-14T01:52:19;11.70;88.50
52787;DHT22;38661;53.152;5.846;2023-05-14T01:54:46;11.70;88.50
52787;DHT22;38661;53.152;5.846;2023-05-14T01:57:12;11.70;88.60
52787;DHT22;38661;53.152;5.846;2023-05-14T01:59:38;11.60;88.80
52787;DHT22;38661;53.152;5.846;2023-05-14T02:02:04;11.60;88.90
52787;DHT22;38661;53.152;5.846;2023-05-14T02:04:29;11.70;89.00
52787;DHT22;38661;53.152;5.846;2023-05-14T02:06:55;11.70;88.90
52787;DHT22;38661;53.152;5.846;2023-05-14T02:09:21;11.60;88.90
52787;DHT22;38661;53.152;5.846;2023-05-14T02:11:47;11.50;89.00
52787;DHT22;38661;53.152;5.846;2023-05-14T02:14:12;11.60;89.20
52787;DHT22;38661;53.152;5.846;2023-05-14T02:16:39;11.60;89.10
52787;DHT22;38661;53.152;5.846;2023-05-14T02:19:05;11.60;89.20
52787;DHT22;38661;53.152;5.846;2023-05-14T02:21:31;11.60;89.30
52787;DHT22;38661;53.152;5.846;2023-05-14T02:23:56;11.60;89.40
52787;DHT22;38661;53.152;5.846;2023-05-14T02:26:22;11.50;89.40
52787;DHT22;38661;53.152;5.846;2023-05-14T02:28:48;11.60;89.40
52787;DHT22;38661;53.152;5.846;2023-05-14T02:31:14;11.50;89.40
52787;DHT22;38661;53.152;5.846;2023-05-14T02:33:39;11.50;89.50
52787;DHT22;38661;53.152;5.846;2023-05-14T02:36:05;11.50;89.40
52787;DHT22;38661;53.152;5.846;2023-05-14T02:38:31;11.50;89.50
52787;DHT22;38661;53.152;5.846;2023-05-14T02:40:57;11.50;89.50
52787;DHT22;38661;53.152;5.846;2023-05-14T02:43:22;11.50;89.50
52787;DHT22;38661;53.152;5.846;2023-05-14T02:45:48;11.50;89.50
52787;DHT22;38661;53.152;5.846;2023-05-14T02:48:14;11.50;89.50
52787;DHT22;38661;53.152;5.846;2023-05-14T02:50:39;11.50;89.50
52787;DHT22;38661;53.152;5.846;2023-05-14T02:53:05;11.40;89.60
52787;DHT22;38661;53.152;5.846;2023-05-14T02:55:31;11.50;89.60
52787;DHT22;38661;53.152;5.846;2023-05-14T02:57:56;11.40;89.60
52787;DHT22;38661;53.152;5.846;2023-05-14T03:00:22;11.50;89.50
52787;DHT22;38661;53.152;5.846;2023-05-14T03:02:48;11.50;89.60
52787;DHT22;38661;53.152;5.846;2023-05-14T03:05:14;11.50;89.40
52787;DHT22;38661;53.152;5.846;2023-05-14T03:07:39;11.50;89.60
52787;DHT22;38661;53.152;5.846;2023-05-14T03:10:05;11.50;89.60
52787;DHT22;38661;53.152;5.846;2023-05-14T03:12:31;11.50;89.60
52787;DHT22;38661;53.152;5.846;2023-05-14T03:14:57;11.50;89.70
52787;DHT22;38661;53.152;5.846;2023-05-14T03:17:23;11.50;89.80
52787;DHT22;38661;53.152;5.846;2023-05-14T03:19:49;11.50;89.60
52787;DHT22;38661;53.152;5.846;2023-05-14T03:22:14;11.50;89.80
52787;DHT22;38661;53.152;5.846;2023-05-14T03:24:40;11.50;89.80
52787;DHT22;38661;53.152;5.846;2023-05-14T03:27:06;11.50;89.80
52787;DHT22;38661;53.152;5.846;2023-05-14T03:29:31;11.50;89.70
52787;DHT22;38661;53.152;5.846;2023-05-14T03:31:57;11.50;89.90
52787;DHT22;38661;53.152;5.846;2023-05-14T03:34:23;11.50;89.80
52787;DHT22;38661;53.152;5.846;2023-05-14T03:36:49;11.50;89.90
52787;DHT22;38661;53.152;5.846;2023-05-14T03:39:15;11.50;89.90
52787;DHT22;38661;53.152;5.846;2023-05-14T03:41:44;11.50;89.70
52787;DHT22;38661;53.152;5.846;2023-05-14T03:44:11;11.50;89.80
52787;DHT22;38661;53.152;5.846;2023-05-14T03:46:37;11.50;89.70
52787;DHT22;38661;53.152;5.846;2023-05-14T03:49:03;11.50;90.20
52787;DHT22;38661;53.152;5.846;2023-05-14T03:51:28;11.50;90.10
52787;DHT22;38661;53.152;5.846;2023-05-14T03:53:54;11.50;90.10
52787;DHT22;38661;53.152;5.846;2023-05-14T03:56:20;11.50;90.20
52787;DHT22;38661;53.152;5.846;2023-05-14T03:58:46;11.40;90.30
52787;DHT22;38661;53.152;5.846;2023-05-14T04:01:12;11.40;90.20
52787;DHT22;38661;53.152;5.846;2023-05-14T04:03:37;11.50;90.20
52787;DHT22;38661;53.152;5.846;2023-05-14T04:06:03;11.50;90.20
52787;DHT22;38661;53.152;5.846;2023-05-14T04:08:29;11.50;90.30
52787;DHT22;38661;53.152;5.846;2023-05-14T04:10:54;11.50;90.30
52787;DHT22;38661;53.152;5.846;2023-05-14T04:13:20;11.50;90.20
52787;DHT22;38661;53.152;5.846;2023-05-14T04:15:46;11.50;90.30
52787;DHT22;38661;53.152;5.846;2023-05-14T04:18:12;11.50;90.20
52787;DHT22;38661;53.152;5.846;2023-05-14T04:20:37;11.60;90.20
52787;DHT22;38661;53.152;5.846;2023-05-14T04:23:03;11.60;90.20
52787;DHT22;38661;53.152;5.846;2023-05-14T04:25:29;11.60;90.10
52787;DHT22;38661;53.152;5.846;2023-05-14T04:27:55;11.60;90.10
52787;DHT22;38661;53.152;5.846;2023-05-14T04:30:20;11.60;90.10
52787;DHT22;38661;53.152;5.846;2023-05-14T04:32:46;11.70;90.10
52787;DHT22;38661;53.152;5.846;2023-05-14T04:35:12;11.70;90.00
52787;DHT22;38661;53.152;5.846;2023-05-14T04:37:38;11.70;90.10
52787;DHT22;38661;53.152;5.846;2023-05-14T04:40:06;11.70;90.10
52787;DHT22;38661;53.152;5.846;2023-05-14T04:42:32;11.70;90.10
52787;DHT22;38661;53.152;5.846;2023-05-14T04:44:58;11.70;90.10
52787;DHT22;38661;53.152;5.846;2023-05-14T04:47:24;11.70;90.20
52787;DHT22;38661;53.152;5.846;2023-05-14T04:49:50;11.70;90.10
52787;DHT22;38661;53.152;5.846;2023-05-14T04:52:16;11.70;90.20
52787;DHT22;38661;53.152;5.846;2023-05-14T04:54:42;11.70;90.20
52787;DHT22;38661;53.152;5.846;2023-05-14T04:57:08;11.70;90.30
52787;DHT22;38661;53.152;5.846;2023-05-14T04:59:33;11.80;90.20
52787;DHT22;38661;53.152;5.846;2023-05-14T05:01:59;11.80;90.30
52787;DHT22;38661;53.152;5.846;2023-05-14T05:04:25;11.80;90.10
52787;DHT22;38661;53.152;5.846;2023-05-14T05:06:51;11.80;90.10
52787;DHT22;38661;53.152;5.846;2023-05-14T05:09:17;11.80;90.10
52787;DHT22;38661;53.152;5.846;2023-05-14T05:11:43;11.90;90.20
52787;DHT22;38661;53.152;5.846;2023-05-14T05:14:09;11.90;90.00
52787;DHT22;38661;53.152;5.846;2023-05-14T05:16:34;11.90;90.20
52787;DHT22;38661;53.152;5.846;2023-05-14T05:19:00;11.90;90.20
52787;DHT22;38661;53.152;5.846;2023-05-14T05:21:26;11.90;90.20
52787;DHT22;38661;53.152;5.846;2023-05-14T05:23:52;11.90;90.10
52787;DHT22;38661;53.152;5.846;2023-05-14T05:26:17;11.90;90.10
52787;DHT22;38661;53.152;5.846;2023-05-14T05:28:43;12.00;90.20
52787;DHT22;38661;53.152;5.846;2023-05-14T05:31:09;12.00;90.20
52787;DHT22;38661;53.152;5.846;2023-05-14T05:33:34;12.00;90.10
52787;DHT22;38661;53.152;5.846;2023-05-14T05:36:00;12.00;90.40
52787;DHT22;38661;53.152;5.846;2023-05-14T05:38:26;12.10;90.30
52787;DHT22;38661;53.152;5.846;2023-05-14T05:40:52;12.20;90.30
52787;DHT22;38661;53.152;5.846;2023-05-14T05:43:18;12.20;90.30
52787;DHT22;38661;53.152;5.846;2023-05-14T05:45:43;12.30;90.30
52787;DHT22;38661;53.152;5.846;2023-05-14T05:48:10;12.30;90.30
52787;DHT22;38661;53.152;5.846;2023-05-14T05:50:36;12.40;90.30
52787;DHT22;38661;53.152;5.846;2023-05-14T05:53:02;12.50;90.30
52787;DHT22;38661;53.152;5.846;2023-05-14T05:55:34;12.60;90.10
52787;DHT22;38661;53.152;5.846;2023-05-14T05:58:00;12.70;90.10
52787;DHT22;38661;53.152;5.846;2023-05-14T06:00:26;12.70;89.90
52787;DHT22;38661;53.152;5.846;2023-05-14T06:02:52;12.70;89.90
52787;DHT22;38661;53.152;5.846;2023-05-14T06:05:20;12.80;89.80
52787;DHT22;38661;53.152;5.846;2023-05-14T06:07:46;12.80;89.60
52787;DHT22;38661;53.152;5.846;2023-05-14T06:10:31;12.90;89.60
52787;DHT22;38661;53.152;5.846;2023-05-14T06:12:57;13.00;89.20
52787;DHT22;38661;53.152;5.846;2023-05-14T06:15:25;13.00;88.90
52787;DHT22;38661;53.152;5.846;2023-05-14T06:17:51;13.00;88.70
52787;DHT22;38661;53.152;5.846;2023-05-14T06:20:20;13.00;88.40
52787;DHT22;38661;53.152;5.846;2023-05-14T06:22:46;13.00;88.30
52787;DHT22;38661;53.152;5.846;2023-05-14T06:25:11;13.10;88.30
52787;DHT22;38661;53.152;5.846;2023-05-14T06:27:37;13.10;88.30
52787;DHT22;38661;53.152;5.846;2023-05-14T06:30:03;13.20;88.20
52787;DHT22;38661;53.152;5.846;2023-05-14T06:32:29;13.20;88.20
52787;DHT22;38661;53.152;5.846;2023-05-14T06:34:55;13.30;88.00
52787;DHT22;38661;53.152;5.846;2023-05-14T06:37:21;13.40;87.90
52787;DHT22;38661;53.152;5.846;2023-05-14T06:39:46;13.50;87.70
52787;DHT22;38661;53.152;5.846;2023-05-14T06:42:15;13.50;87.60
52787;DHT22;38661;53.152;5.846;2023-05-14T06:44:41;13.60;87.70
52787;DHT22;38661;53.152;5.846;2023-05-14T06:47:28;13.60;87.60
52787;DHT22;38661;53.152;5.846;2023-05-14T06:50:02;13.70;87.60
52787;DHT22;38661;53.152;5.846;2023-05-14T06:52:28;13.80;87.30
52787;DHT22;38661;53.152;5.846;2023-05-14T06:54:57;13.80;87.10
52787;DHT22;38661;53.152;5.846;2023-05-14T06:57:23;13.90;86.40
52787;DHT22;38661;53.152;5.846;2023-05-14T06:59:48;13.90;86.30
52787;DHT22;38661;53.152;5.846;2023-05-14T07:02:14;13.90;86.40
52787;DHT22;38661;53.152;5.846;2023-05-14T07:04:40;14.00;86.40
52787;DHT22;38661;53.152;5.846;2023-05-14T07:07:06;14.00;86.00
52787;DHT22;38661;53.152;5.846;2023-05-14T07:09:32;14.00;85.70
52787;DHT22;38661;53.152;5.846;2023-05-14T07:11:58;14.00;85.90
52787;DHT22;38661;53.152;5.846;2023-05-14T07:14:23;14.10;85.70
52787;DHT22;38661;53.152;5.846;2023-05-14T07:16:49;14.10;85.60
52787;DHT22;38661;53.152;5.846;2023-05-14T07:19:15;14.20;85.60
52787;DHT22;38661;53.152;5.846;2023-05-14T07:21:40;14.30;85.40
52787;DHT22;38661;53.152;5.846;2023-05-14T07:24:47;14.50;85.20
52787;DHT22;38661;53.152;5.846;2023-05-14T07:27:16;14.60;85.00
52787;DHT22;38661;53.152;5.846;2023-05-14T07:29:42;14.70;84.90
52787;DHT22;38661;53.152;5.846;2023-05-14T07:32:08;14.80;85.00
52787;DHT22;38661;53.152;5.846;2023-05-14T07:34:34;14.90;84.40
52787;DHT22;38661;53.152;5.846;2023-05-14T07:37:00;14.90;84.30
52787;DHT22;38661;53.152;5.846;2023-05-14T07:39:26;15.00;84.30
52787;DHT22;38661;53.152;5.846;2023-05-14T07:41:52;15.00;84.40
52787;DHT22;38661;53.152;5.846;2023-05-14T07:44:19;15.20;84.30
52787;DHT22;38661;53.152;5.846;2023-05-14T07:46:46;15.20;84.20
52787;DHT22;38661;53.152;5.846;2023-05-14T07:49:19;15.20;84.10
52787;DHT22;38661;53.152;5.846;2023-05-14T07:51:47;15.20;83.90
52787;DHT22;38661;53.152;5.846;2023-05-14T07:54:13;15.30;83.70
52787;DHT22;38661;53.152;5.846;2023-05-14T07:56:39;15.40;83.70
52787;DHT22;38661;53.152;5.846;2023-05-14T07:59:04;15.40;83.20
52787;DHT22;38661;53.152;5.846;2023-05-14T08:01:35;15.40;83.40
52787;DHT22;38661;53.152;5.846;2023-05-14T08:04:01;15.50;83.40
52787;DHT22;38661;53.152;5.846;2023-05-14T08:06:27;15.60;82.80
52787;DHT22;38661;53.152;5.846;2023-05-14T08:09:05;15.70;82.50
52787;DHT22;38661;53.152;5.846;2023-05-14T08:11:31;15.70;82.00
52787;DHT22;38661;53.152;5.846;2023-05-14T08:13:57;15.70;81.90
52787;DHT22;38661;53.152;5.846;2023-05-14T08:16:26;15.70;81.70
52787;DHT22;38661;53.152;5.846;2023-05-14T08:18:52;15.70;81.60
52787;DHT22;38661;53.152;5.846;2023-05-14T08:21:20;15.70;81.50
52787;DHT22;38661;53.152;5.846;2023-05-14T08:23:46;15.70;81.20
52787;DHT22;38661;53.152;5.846;2023-05-14T08:26:15;15.60;81.60
52787;DHT22;38661;53.152;5.846;2023-05-14T08:28:43;15.70;81.70
52787;DHT22;38661;53.152;5.846;2023-05-14T08:31:09;15.70;81.90
52787;DHT22;38661;53.152;5.846;2023-05-14T08:33:35;15.80;81.90
52787;DHT22;38661;53.152;5.846;2023-05-14T08:36:00;15.90;81.50
52787;DHT22;38661;53.152;5.846;2023-05-14T08:38:26;15.90;81.60
52787;DHT22;38661;53.152;5.846;2023-05-14T08:40:56;16.00;81.40
52787;DHT22;38661;53.152;5.846;2023-05-14T08:43:48;16.00;81.10
52787;DHT22;38661;53.152;5.846;2023-05-14T08:46:16;16.10;81.00
52787;DHT22;38661;53.152;5.846;2023-05-14T08:48:46;16.10;80.60
52787;DHT22;38661;53.152;5.846;2023-05-14T08:51:12;16.10;80.40
52787;DHT22;38661;53.152;5.846;2023-05-14T08:53:38;16.10;80.00
52787;DHT22;38661;53.152;5.846;2023-05-14T08:56:06;16.20;79.90
52787;DHT22;38661;53.152;5.846;2023-05-14T08:58:32;16.30;80.00
52787;DHT22;38661;53.152;5.846;2023-05-14T09:00:58;16.40;79.70
52787;DHT22;38661;53.152;5.846;2023-05-14T09:03:24;16.50;79.60
52787;DHT22;38661;53.152;5.846;2023-05-14T09:05:50;16.50;79.60
52787;DHT22;38661;53.152;5.846;2023-05-14T09:08:16;16.60;79.50
52787;DHT22;38661;53.152;5.846;2023-05-14T09:10:42;16.70;79.20
52787;DHT22;38661;53.152;5.846;2023-05-14T09:13:07;16.70;78.90
52787;DHT22;38661;53.152;5.846;2023-05-14T09:15:36;16.80;78.60
52787;DHT22;38661;53.152;5.846;2023-05-14T09:18:05;16.90;78.70
52787;DHT22;38661;53.152;5.846;2023-05-14T09:20:31;16.90;78.90
52787;DHT22;38661;53.152;5.846;2023-05-14T09:22:58;17.00;78.80
52787;DHT22;38661;53.152;5.846;2023-05-14T09:25:30;17.10;78.60
52787;DHT22;38661;53.152;5.846;2023-05-14T09:28:04;17.10;77.80
52787;DHT22;38661;53.152;5.846;2023-05-14T09:30:31;17.00;77.70
52787;DHT22;38661;53.152;5.846;2023-05-14T09:32:58;17.20;77.40
52787;DHT22;38661;53.152;5.846;2023-05-14T09:35:24;17.20;77.40
52787;DHT22;38661;53.152;5.846;2023-05-14T09:37:51;17.30;77.40
52787;DHT22;38661;53.152;5.846;2023-05-14T09:40:19;17.40;77.00
52787;DHT22;38661;53.152;5.846;2023-05-14T09:42:45;17.50;76.40
52787;DHT22;38661;53.152;5.846;2023-05-14T09:45:11;17.70;76.60
52787;DHT22;38661;53.152;5.846;2023-05-14T09:47:38;17.80;76.70
52787;DHT22;38661;53.152;5.846;2023-05-14T09:50:04;17.80;76.60
52787;DHT22;38661;53.152;5.846;2023-05-14T09:52:30;17.90;76.20
52787;DHT22;38661;53.152;5.846;2023-05-14T09:54:56;18.00;75.90
52787;DHT22;38661;53.152;5.846;2023-05-14T09:57:29;18.10;75.20
52787;DHT22;38661;53.152;5.846;2023-05-14T09:59:55;18.10;75.20
52787;DHT22;38661;53.152;5.846;2023-05-14T10:02:33;18.20;75.80
52787;DHT22;38661;53.152;5.846;2023-05-14T10:05:03;18.30;74.90
52787;DHT22;38661;53.152;5.846;2023-05-14T10:07:41;18.40;75.10
52787;DHT22;38661;53.152;5.846;2023-05-14T10:10:15;18.40;75.10
52787;DHT22;38661;53.152;5.846;2023-05-14T10:12:49;18.50;75.10
52787;DHT22;38661;53.152;5.846;2023-05-14T10:15:19;18.50;73.90
52787;DHT22;38661;53.152;5.846;2023-05-14T10:17:48;18.60;73.20
52787;DHT22;38661;53.152;5.846;2023-05-14T10:20:17;18.80;73.70
52787;DHT22;38661;53.152;5.846;2023-05-14T10:22:43;18.80;74.00
52787;DHT22;38661;53.152;5.846;2023-05-14T10:25:09;18.90;73.50
52787;DHT22;38661;53.152;5.846;2023-05-14T10:27:35;19.00;73.10
52787;DHT22;38661;53.152;5.846;2023-05-14T10:30:05;19.10;73.00
52787;DHT22;38661;53.152;5.846;2023-05-14T10:32:34;19.20;71.70
52787;DHT22;38661;53.152;5.846;2023-05-14T10:35:18;19.20;71.00
52787;DHT22;38661;53.152;5.846;2023-05-14T10:37:51;19.40;71.90
52787;DHT22;38661;53.152;5.846;2023-05-14T10:40:17;19.50;71.60
52787;DHT22;38661;53.152;5.846;2023-05-14T10:42:45;19.60;71.40
52787;DHT22;38661;53.152;5.846;2023-05-14T10:45:16;19.70;71.10
52787;DHT22;38661;53.152;5.846;2023-05-14T10:47:46;20.00;71.30
52787;DHT22;38661;53.152;5.846;2023-05-14T10:50:14;20.10;71.40
52787;DHT22;38661;53.152;5.846;2023-05-14T10:52:44;20.30;70.90
52787;DHT22;38661;53.152;5.846;2023-05-14T10:55:15;20.40;70.60
52787;DHT22;38661;53.152;5.846;2023-05-14T10:57:42;20.40;69.90
52787;DHT22;38661;53.152;5.846;2023-05-14T11:00:10;20.50;69.20
52787;DHT22;38661;53.152;5.846;2023-05-14T11:02:39;20.50;69.60
52787;DHT22;38661;53.152;5.846;2023-05-14T11:05:07;20.50;70.00
52787;DHT22;38661;53.152;5.846;2023-05-14T11:07:37;20.50;68.90
52787;DHT22;38661;53.152;5.846;2023-05-14T11:10:05;20.50;69.30
52787;DHT22;38661;53.152;5.846;2023-05-14T11:12:36;20.70;69.80
52787;DHT22;38661;53.152;5.846;2023-05-14T11:15:05;20.80;69.40
52787;DHT22;38661;53.152;5.846;2023-05-14T11:17:31;20.90;69.20
52787;DHT22;38661;53.152;5.846;2023-05-14T11:19:58;21.10;68.60
52787;DHT22;38661;53.152;5.846;2023-05-14T11:22:24;21.20;68.80
52787;DHT22;38661;53.152;5.846;2023-05-14T11:24:50;21.20;67.70
52787;DHT22;38661;53.152;5.846;2023-05-14T11:27:17;21.10;68.10
52787;DHT22;38661;53.152;5.846;2023-05-14T11:29:47;21.10;68.60
52787;DHT22;38661;53.152;5.846;2023-05-14T11:32:14;21.10;68.20
52787;DHT22;38661;53.152;5.846;2023-05-14T11:34:41;21.00;68.20
52787;DHT22;38661;53.152;5.846;2023-05-14T11:37:13;20.90;68.30
52787;DHT22;38661;53.152;5.846;2023-05-14T11:39:46;20.90;68.60
52787;DHT22;38661;53.152;5.846;2023-05-14T11:42:12;20.90;68.50
52787;DHT22;38661;53.152;5.846;2023-05-14T11:44:40;21.00;68.30
52787;DHT22;38661;53.152;5.846;2023-05-14T11:47:09;21.20;68.00
52787;DHT22;38661;53.152;5.846;2023-05-14T11:49:35;21.30;67.50
52787;DHT22;38661;53.152;5.846;2023-05-14T11:52:03;21.40;67.30
52787;DHT22;38661;53.152;5.846;2023-05-14T11:54:31;21.50;67.20
52787;DHT22;38661;53.152;5.846;2023-05-14T11:56:57;21.60;68.10
52787;DHT22;38661;53.152;5.846;2023-05-14T11:59:27;21.80;68.20
52787;DHT22;38661;53.152;5.846;2023-05-14T12:01:54;21.90;67.80
52787;DHT22;38661;53.152;5.846;2023-05-14T12:04:20;22.00;66.30
52787;DHT22;38661;53.152;5.846;2023-05-14T12:06:50;22.10;65.80
52787;DHT22;38661;53.152;5.846;2023-05-14T12:09:20;22.20;65.60
52787;DHT22;38661;53.152;5.846;2023-05-14T12:11:48;22.40;65.70
52787;DHT22;38661;53.152;5.846;2023-05-14T12:14:23;22.50;65.60
52787;DHT22;38661;53.152;5.846;2023-05-14T12:16:49;22.60;65.60
52787;DHT22;38661;53.152;5.846;2023-05-14T12:19:17;22.60;65.20
52787;DHT22;38661;53.152;5.846;2023-05-14T12:21:45;22.70;65.50
52787;DHT22;38661;53.152;5.846;2023-05-14T12:24:13;22.80;65.20
52787;DHT22;38661;53.152;5.846;2023-05-14T12:26:40;22.80;64.10
52787;DHT22;38661;53.152;5.846;2023-05-14T12:29:12;22.80;64.00
52787;DHT22;38661;53.152;5.846;2023-05-14T12:31:47;22.80;62.90
52787;DHT22;38661;53.152;5.846;2023-05-14T12:34:14;22.80;62.90
52787;DHT22;38661;53.152;5.846;2023-05-14T12:36:40;22.80;63.60
52787;DHT22;38661;53.152;5.846;2023-05-14T12:39:06;22.90;63.70
52787;DHT22;38661;53.152;5.846;2023-05-14T12:41:32;22.90;63.20
52787;DHT22;38661;53.152;5.846;2023-05-14T12:43:59;23.00;62.30
52787;DHT22;38661;53.152;5.846;2023-05-14T12:46:26;23.20;61.80
52787;DHT22;38661;53.152;5.846;2023-05-14T12:48:53;23.20;61.90
52787;DHT22;38661;53.152;5.846;2023-05-14T12:51:19;23.30;61.90
52787;DHT22;38661;53.152;5.846;2023-05-14T12:53:45;23.40;62.40
52787;DHT22;38661;53.152;5.846;2023-05-14T12:56:11;23.40;62.60
52787;DHT22;38661;53.152;5.846;2023-05-14T12:58:37;23.40;62.40
52787;DHT22;38661;53.152;5.846;2023-05-14T13:01:04;23.40;61.90
52787;DHT22;38661;53.152;5.846;2023-05-14T13:03:29;23.40;61.90
52787;DHT22;38661;53.152;5.846;2023-05-14T13:05:55;23.30;61.90
52787;DHT22;38661;53.152;5.846;2023-05-14T13:08:24;23.40;61.80
52787;DHT22;38661;53.152;5.846;2023-05-14T13:10:54;23.40;61.30
52787;DHT22;38661;53.152;5.846;2023-05-14T13:13:20;23.50;61.50
52787;DHT22;38661;53.152;5.846;2023-05-14T13:15:49;23.40;60.90
52787;DHT22;38661;53.152;5.846;2023-05-14T13:18:16;23.40;60.50
52787;DHT22;38661;53.152;5.846;2023-05-14T13:20:42;23.50;60.70
52787;DHT22;38661;53.152;5.846;2023-05-14T13:23:07;23.40;61.10
52787;DHT22;38661;53.152;5.846;2023-05-14T13:25:34;23.50;61.40
52787;DHT22;38661;53.152;5.846;2023-05-14T13:27:59;23.40;61.00
52787;DHT22;38661;53.152;5.846;2023-05-14T13:30:25;23.50;60.80
52787;DHT22;38661;53.152;5.846;2023-05-14T13:32:51;23.40;60.00
52787;DHT22;38661;53.152;5.846;2023-05-14T13:35:17;23.30;58.20
52787;DHT22;38661;53.152;5.846;2023-05-14T13:37:43;23.20;58.00
52787;DHT22;38661;53.152;5.846;2023-05-14T13:40:09;23.00;59.30
52787;DHT22;38661;53.152;5.846;2023-05-14T13:42:36;23.00;58.20
52787;DHT22;38661;53.152;5.846;2023-05-14T13:45:02;22.80;58.00
52787;DHT22;38661;53.152;5.846;2023-05-14T13:47:28;22.80;59.30
52787;DHT22;38661;53.152;5.846;2023-05-14T13:49:54;22.90;60.30
52787;DHT22;38661;53.152;5.846;2023-05-14T13:52:23;23.00;61.30
52787;DHT22;38661;53.152;5.846;2023-05-14T13:54:49;23.00;62.50
52787;DHT22;38661;53.152;5.846;2023-05-14T13:57:15;23.20;62.90
52787;DHT22;38661;53.152;5.846;2023-05-14T13:59:41;23.30;62.30
52787;DHT22;38661;53.152;5.846;2023-05-14T14:02:07;23.40;61.80
52787;DHT22;38661;53.152;5.846;2023-05-14T14:04:33;23.50;62.70
52787;DHT22;38661;53.152;5.846;2023-05-14T14:06:59;23.50;63.50
52787;DHT22;38661;53.152;5.846;2023-05-14T14:09:24;23.50;62.90
52787;DHT22;38661;53.152;5.846;2023-05-14T14:11:50;23.50;62.20
52787;DHT22;38661;53.152;5.846;2023-05-14T14:14:17;23.50;62.50
52787;DHT22;38661;53.152;5.846;2023-05-14T14:16:43;23.40;62.80
52787;DHT22;38661;53.152;5.846;2023-05-14T14:19:09;23.50;62.70
52787;DHT22;38661;53.152;5.846;2023-05-14T14:21:35;23.40;62.90
52787;DHT22;38661;53.152;5.846;2023-05-14T14:24:04;23.40;63.30
52787;DHT22;38661;53.152;5.846;2023-05-14T14:26:30;23.30;64.00
52787;DHT22;38661;53.152;5.846;2023-05-14T14:28:56;23.20;64.50
52787;DHT22;38661;53.152;5.846;2023-05-14T14:31:22;23.20;64.50
52787;DHT22;38661;53.152;5.846;2023-05-14T14:33:48;23.20;64.20
52787;DHT22;38661;53.152;5.846;2023-05-14T14:36:14;23.00;64.40
52787;DHT22;38661;53.152;5.846;2023-05-14T14:38:39;23.00;64.50
52787;DHT22;38661;53.152;5.846;2023-05-14T14:41:05;22.90;64.80
52787;DHT22;38661;53.152;5.846;2023-05-14T14:43:41;22.80;65.00
52787;DHT22;38661;53.152;5.846;2023-05-14T14:46:08;22.70;65.50
52787;DHT22;38661;53.152;5.846;2023-05-14T14:48:35;22.70;65.70
52787;DHT22;38661;53.152;5.846;2023-05-14T14:51:05;22.70;65.80
52787;DHT22;38661;53.152;5.846;2023-05-14T14:53:32;22.60;65.80
52787;DHT22;38661;53.152;5.846;2023-05-14T14:55:58;22.60;66.20
52787;DHT22;38661;53.152;5.846;2023-05-14T14:58:25;22.60;66.10
52787;DHT22;38661;53.152;5.846;2023-05-14T15:00:55;22.60;66.00
52787;DHT22;38661;53.152;5.846;2023-05-14T15:03:22;22.70;65.50
52787;DHT22;38661;53.152;5.846;2023-05-14T15:05:48;22.70;65.30
52787;DHT22;38661;53.152;5.846;2023-05-14T15:08:14;22.70;65.30
52787;DHT22;38661;53.152;5.846;2023-05-14T15:10:40;22.70;65.30
52787;DHT22;38661;53.152;5.846;2023-05-14T15:13:06;22.60;65.50
52787;DHT22;38661;53.152;5.846;2023-05-14T15:15:33;22.50;65.50
52787;DHT22;38661;53.152;5.846;2023-05-14T15:17:59;22.50;64.10
52787;DHT22;38661;53.152;5.846;2023-05-14T15:20:25;22.30;64.50
52787;DHT22;38661;53.152;5.846;2023-05-14T15:22:51;22.20;64.70
52787;DHT22;38661;53.152;5.846;2023-05-14T15:25:19;21.90;64.60
52787;DHT22;38661;53.152;5.846;2023-05-14T15:27:45;21.90;65.20
52787;DHT22;38661;53.152;5.846;2023-05-14T15:30:11;21.80;65.70
52787;DHT22;38661;53.152;5.846;2023-05-14T15:32:39;21.80;66.00
52787;DHT22;38661;53.152;5.846;2023-05-14T15:35:06;21.90;65.90